createdAt,value
2022-11-23T00:05:46.850Z,97696.06
2022-11-23T00:11:56.759Z,97687.63
2022-11-23T00:18:00.712Z,97696.47
2022-11-23T00:24:10.092Z,97714.69
2022-11-23T00:30:12.720Z,97722.66
2022-11-23T00:36:18.822Z,97719.78
2022-11-23T00:42:20.763Z,97719.16
2022-11-23T00:48:35.473Z,97721.81
2022-11-23T00:54:37.379Z,97723.59
2022-11-23T01:00:53.929Z,97706.00
2022-11-23T01:13:16.136Z,97705.16
2022-11-23T01:19:20.735Z,97707.94
2022-11-23T01:25:23.058Z,97704.19
2022-11-23T01:31:28.704Z,97697.06
2022-11-23T01:37:30.615Z,97710.38
2022-11-23T01:43:32.817Z,97716.50
2022-11-23T01:49:48.385Z,97723.09
2022-11-23T01:55:51.849Z,97735.56
2022-11-23T02:01:53.866Z,97742.28
2022-11-23T02:07:58.013Z,97738.84
2022-11-23T02:14:03.757Z,97741.69
2022-11-23T02:20:12.542Z,97732.50
2022-11-23T02:26:36.984Z,97733.09
2022-11-23T02:32:39.266Z,97733.72
2022-11-23T02:38:41.345Z,97741.66
2022-11-23T02:45:15.011Z,97733.69
2022-11-23T02:51:17.104Z,97729.00
2022-11-23T02:57:21.643Z,97742.09
2022-11-23T03:03:23.715Z,97736.34
2022-11-23T03:09:27.950Z,97741.66
2022-11-23T03:15:29.960Z,97738.41
2022-11-23T03:21:32.016Z,97729.00
2022-11-23T03:27:34.909Z,97732.47
2022-11-23T03:33:36.936Z,97728.19
2022-11-23T03:39:42.886Z,97723.50
2022-11-23T03:46:03.541Z,97717.34
2022-11-23T03:52:05.680Z,97719.22
2022-11-23T03:58:13.215Z,97716.56
2022-11-23T04:04:15.239Z,97734.13
2022-11-23T04:10:19.175Z,97731.69
2022-11-23T04:16:21.110Z,97739.47
2022-11-23T04:22:23.215Z,97735.97
2022-11-23T04:28:25.157Z,97729.22
2022-11-23T04:34:27.151Z,97735.97
2022-11-23T04:40:48.455Z,97733.53
2022-11-23T04:47:10.005Z,97731.69
2022-11-23T04:53:13.296Z,97733.72
2022-11-23T04:59:15.248Z,97749.06
2022-11-23T05:05:20.597Z,97745.38
2022-11-23T05:11:22.959Z,97743.53
2022-11-23T05:17:40.259Z,97746.38
2022-11-23T05:24:09.418Z,97752.72
2022-11-23T05:30:44.321Z,97750.06
2022-11-23T05:36:49.458Z,97761.53
2022-11-23T05:43:03.015Z,97765.38
2022-11-23T05:49:05.449Z,97761.28
2022-11-23T05:55:08.315Z,97758.19
2022-11-23T06:01:10.355Z,97756.53
2022-11-23T06:07:15.381Z,97755.13
2022-11-23T06:13:23.187Z,97760.22
2022-11-23T06:19:32.920Z,97763.69
2022-11-23T06:25:35.133Z,97766.50
2022-11-23T06:31:47.522Z,97770.00
2022-11-23T06:37:54.601Z,97772.69
2022-11-23T06:44:12.595Z,97778.25
2022-11-23T06:50:17.591Z,97783.34
2022-11-23T06:56:27.693Z,97785.38
2022-11-23T07:02:29.583Z,97787.81
2022-11-23T07:15:23.024Z,97809.72
2022-11-23T07:21:25.179Z,97815.50
2022-11-23T07:27:42.665Z,97822.22
2022-11-23T07:33:48.390Z,97822.78
2022-11-23T07:39:57.695Z,97830.34
2022-11-23T07:46:00.254Z,97831.28
2022-11-23T07:52:02.261Z,97830.22
2022-11-23T07:58:07.996Z,97839.03
2022-11-23T08:04:09.916Z,97843.09
2022-11-23T08:10:18.506Z,97845.53
2022-11-23T08:16:35.234Z,97840.19
2022-11-23T08:22:37.522Z,97836.44
2022-11-23T08:28:39.983Z,97840.88
2022-11-23T08:34:44.463Z,97851.41
2022-11-23T08:40:48.582Z,97843.66
2022-11-23T08:46:50.924Z,97849.94
2022-11-23T08:53:01.002Z,97855.22
2022-11-23T08:59:16.038Z,97857.44
2022-11-23T09:05:20.049Z,97849.38
2022-11-23T09:11:22.061Z,97859.53
2022-11-23T09:17:32.921Z,97862.97
2022-11-23T09:23:35.070Z,97873.28
2022-11-23T09:29:40.009Z,97869.34
2022-11-23T09:35:43.972Z,97856.81
2022-11-23T09:42:13.549Z,97856.31
2022-11-23T09:48:35.119Z,97862.22
2022-11-23T09:54:48.339Z,97849.47
2022-11-23T10:01:07.982Z,97861.81
2022-11-23T10:07:41.292Z,97866.72
2022-11-23T10:14:32.948Z,97862.16
2022-11-23T10:20:48.393Z,97862.31
2022-11-23T10:26:53.464Z,97863.19
2022-11-23T10:33:50.722Z,97860.97
2022-11-23T10:39:54.942Z,97870.53
2022-11-23T10:46:41.044Z,97872.06
2022-11-23T10:52:53.134Z,97869.59
2022-11-23T10:58:57.437Z,97869.41
2022-11-23T11:12:03.777Z,97861.25
2022-11-23T11:18:22.496Z,97871.50
2022-11-23T11:24:46.299Z,97858.00
2022-11-23T11:31:15.955Z,97862.31
2022-11-23T11:37:38.896Z,97851.91
2022-11-23T11:44:04.956Z,97848.00
2022-11-23T11:50:28.478Z,97845.94
2022-11-23T11:56:52.978Z,97849.56
2022-11-23T12:03:15.158Z,97841.63
2022-11-23T12:09:23.044Z,97841.09
2022-11-23T12:15:50.401Z,97814.28
2022-11-23T12:22:36.395Z,97826.47
2022-11-23T12:29:12.684Z,97821.03
2022-11-23T12:36:23.598Z,97824.97
2022-11-23T12:43:01.636Z,97808.19
2022-11-23T12:49:38.993Z,97810.13
2022-11-23T12:56:16.836Z,97811.56
2022-11-23T13:02:53.046Z,97806.00
2022-11-23T13:09:26.389Z,97804.00
2022-11-23T13:16:11.439Z,97798.16
2022-11-23T13:22:24.469Z,97801.44
2022-11-23T13:28:31.591Z,97797.75
2022-11-23T13:34:47.804Z,97781.63
2022-11-23T13:40:49.749Z,97784.34
2022-11-23T13:47:18.778Z,97779.97
2022-11-23T13:53:44.395Z,97768.16
2022-11-23T13:59:50.117Z,97759.13
2022-11-23T14:06:01.364Z,97758.34
2022-11-23T14:12:47.386Z,97760.09
2022-11-23T14:18:52.064Z,97758.00
2022-11-23T14:25:07.673Z,97764.66
2022-11-23T14:31:13.545Z,97758.97
2022-11-23T14:38:17.786Z,97752.19
2022-11-23T14:44:38.448Z,97756.91
2022-11-23T14:50:40.815Z,97756.88
2022-11-23T14:56:52.696Z,97767.09
2022-11-23T15:03:00.268Z,97764.03
2022-11-23T15:09:38.841Z,97771.06
2022-11-23T15:15:46.240Z,97776.72
2022-11-23T15:21:57.342Z,97774.09
2022-11-23T15:27:59.266Z,97777.06
2022-11-23T15:34:20.687Z,97775.19
2022-11-23T15:40:24.233Z,97776.53
2022-11-23T15:46:43.737Z,97785.81
2022-11-23T15:52:51.513Z,97784.41
2022-11-23T15:58:54.533Z,97783.19
2022-11-23T16:05:25.439Z,97772.38
2022-11-23T16:11:36.686Z,97780.31
2022-11-23T16:17:45.545Z,97784.03
2022-11-23T16:23:56.885Z,97779.72
2022-11-23T16:30:04.393Z,97781.50
2022-11-23T16:36:09.451Z,97791.06
2022-11-23T16:42:19.247Z,97791.13
2022-11-23T16:48:27.112Z,97807.09
2022-11-23T16:54:33.237Z,97819.19
2022-11-23T17:00:36.044Z,97819.19
2022-11-23T17:06:56.282Z,97823.66
2022-11-23T17:13:01.538Z,97839.41
2022-11-23T17:19:06.352Z,97846.25
2022-11-23T17:25:15.265Z,97859.09
2022-11-23T17:31:20.391Z,97866.44
2022-11-23T17:37:28.106Z,97870.13
2022-11-23T17:43:32.918Z,97871.22
2022-11-23T17:49:46.135Z,97897.72
2022-11-23T17:55:48.628Z,97904.88
2022-11-23T18:02:02.807Z,97921.78
2022-11-23T18:08:08.080Z,97930.50
2022-11-23T18:14:18.083Z,97938.56
2022-11-23T18:20:20.233Z,97941.94
2022-11-23T18:26:30.469Z,97943.69
2022-11-23T18:32:32.441Z,97946.25
2022-11-23T18:38:47.187Z,97943.59
2022-11-23T18:44:49.185Z,97943.56
2022-11-23T18:51:04.993Z,97950.13
2022-11-23T18:57:09.959Z,97953.97
2022-11-23T19:03:16.352Z,97959.25
2022-11-23T19:09:18.246Z,97955.22
2022-11-23T19:15:20.243Z,97959.38
2022-11-23T19:21:25.886Z,97963.59
2022-11-23T19:27:38.205Z,97972.16
2022-11-23T19:33:40.238Z,97964.31
2022-11-23T19:39:47.749Z,97964.00
2022-11-23T19:45:57.601Z,97964.41
2022-11-23T19:52:03.516Z,97960.53
2022-11-23T19:58:05.432Z,97970.03
2022-11-23T20:04:15.475Z,97978.47
2022-11-23T20:10:20.398Z,97975.00
2022-11-23T20:16:26.053Z,97978.44
2022-11-23T20:22:32.628Z,97982.38
2022-11-23T20:28:34.868Z,97987.75
2022-11-23T20:34:36.983Z,98001.28
2022-11-23T20:40:51.215Z,98005.59
2022-11-23T20:47:03.881Z,98026.72
2022-11-23T20:53:06.065Z,98026.88
2022-11-23T20:59:11.649Z,98040.97
2022-11-23T21:05:23.587Z,98050.47
2022-11-23T21:11:47.355Z,98065.88
2022-11-23T21:17:49.767Z,98069.06
2022-11-23T21:23:52.564Z,98082.66
2022-11-23T21:29:55.143Z,98091.97
2022-11-23T21:36:03.123Z,98094.28
2022-11-23T21:42:17.226Z,98109.78
2022-11-23T21:48:19.157Z,98110.91
2022-11-23T21:54:27.096Z,98118.09
2022-11-23T22:00:31.546Z,98123.84
2022-11-23T22:06:39.091Z,98128.13
2022-11-23T22:12:41.086Z,98137.16
2022-11-23T22:18:55.825Z,98141.06
2022-11-23T22:24:58.193Z,98145.34
2022-11-23T22:31:12.432Z,98153.06
2022-11-23T22:37:14.658Z,98158.88
2022-11-23T22:43:25.624Z,98159.81
2022-11-23T22:49:27.807Z,98163.38
2022-11-23T22:55:38.806Z,98167.44
2022-11-23T23:01:40.870Z,98182.94
2022-11-23T23:07:43.291Z,98171.69
2022-11-23T23:13:45.394Z,98177.47
2022-11-23T23:19:50.109Z,98180.19
2022-11-23T23:25:58.468Z,98184.13
2022-11-23T23:32:03.220Z,98184.03
2022-11-23T23:38:12.192Z,98192.25
2022-11-23T23:44:14.691Z,98202.91
2022-11-23T23:50:17.309Z,98213.75
2022-11-23T23:56:26.265Z,98217.88
